sensor_id;sensor_type;location;lat;lon;timestamp;pressure;altitude;pressure_sealevel;temperature;humidity
71643;BME280;59438;45.014;39.006;2023-04-27T00:02:01;100501.66;;;15.14;53.95
71643;BME280;59438;45.014;39.006;2023-04-27T00:04:28;100502.72;;;15.11;53.77
71643;BME280;59438;45.014;39.006;2023-04-27T00:06:54;100504.59;;;15.09;54.02
71643;BME280;59438;45.014;39.006;2023-04-27T00:09:20;100497.66;;;15.07;53.49
71643;BME280;59438;45.014;39.006;2023-04-27T00:11:47;100503.91;;;15.06;54.55
71643;BME280;59438;45.014;39.006;2023-04-27T00:14:13;100492.56;;;15.04;54.46
71643;BME280;59438;45.014;39.006;2023-04-27T00:16:39;100491.91;;;15.00;54.25
71643;BME280;59438;45.014;39.006;2023-04-27T00:19:07;100481.59;;;14.96;54.66
71643;BME280;59438;45.014;39.006;2023-04-27T00:21:34;100474.19;;;14.86;53.79
71643;BME280;59438;45.014;39.006;2023-04-27T00:24:00;100497.03;;;15.03;54.47
71643;BME280;59438;45.014;39.006;2023-04-27T00:26:27;100504.09;;;15.03;54.47
71643;BME280;59438;45.014;39.006;2023-04-27T00:28:53;100500.69;;;15.01;54.67
71643;BME280;59438;45.014;39.006;2023-04-27T00:31:20;100499.84;;;15.00;55.20
71643;BME280;59438;45.014;39.006;2023-04-27T00:33:46;100499.84;;;15.00;54.95
71643;BME280;59438;45.014;39.006;2023-04-27T00:36:14;100498.16;;;14.99;54.67
71643;BME280;59438;45.014;39.006;2023-04-27T00:38:40;100496.44;;;14.98;54.76
71643;BME280;59438;45.014;39.006;2023-04-27T00:41:07;100497.38;;;14.97;55.24
71643;BME280;59438;45.014;39.006;2023-04-27T00:43:41;100497.38;;;14.97;55.42
71643;BME280;59438;45.014;39.006;2023-04-27T00:46:08;100489.63;;;14.94;55.20
71643;BME280;59438;45.014;39.006;2023-04-27T00:48:35;100492.47;;;14.91;55.24
71643;BME280;59438;45.014;39.006;2023-04-27T00:51:01;100500.47;;;14.89;55.23
71643;BME280;59438;45.014;39.006;2023-04-27T00:53:30;100498.09;;;14.85;54.40
71643;BME280;59438;45.014;39.006;2023-04-27T00:55:57;100490.41;;;14.80;54.41
71643;BME280;59438;45.014;39.006;2023-04-27T00:58:23;100493.06;;;14.80;54.65
71643;BME280;59438;45.014;39.006;2023-04-27T01:00:50;100494.94;;;14.78;54.71
71643;BME280;59438;45.014;39.006;2023-04-27T01:03:16;100492.56;;;14.74;54.75
71643;BME280;59438;45.014;39.006;2023-04-27T01:05:42;100496.41;;;14.68;55.05
71643;BME280;59438;45.014;39.006;2023-04-27T01:08:09;100486.19;;;14.62;54.76
71643;BME280;59438;45.014;39.006;2023-04-27T01:10:37;100491.75;;;14.57;55.18
71643;BME280;59438;45.014;39.006;2023-04-27T01:13:03;100477.81;;;14.54;55.39
71643;BME280;59438;45.014;39.006;2023-04-27T01:15:30;100484.13;;;14.51;55.39
71643;BME280;59438;45.014;39.006;2023-04-27T01:17:57;100483.38;;;14.49;54.88
71643;BME280;59438;45.014;39.006;2023-04-27T01:20:24;100485.16;;;14.48;54.73
71643;BME280;59438;45.014;39.006;2023-04-27T01:22:52;100490.53;;;14.47;55.34
71643;BME280;59438;45.014;39.006;2023-04-27T01:25:20;100472.03;;;14.47;55.05
71643;BME280;59438;45.014;39.006;2023-04-27T01:27:46;100478.09;;;14.49;54.96
71643;BME280;59438;45.014;39.006;2023-04-27T01:30:12;100477.16;;;14.50;54.39
71643;BME280;59438;45.014;39.006;2023-04-27T01:32:39;100484.81;;;14.55;54.48
71643;BME280;59438;45.014;39.006;2023-04-27T01:35:05;100482.88;;;14.58;55.00
71643;BME280;59438;45.014;39.006;2023-04-27T01:37:32;100487.97;;;14.61;54.70
71643;BME280;59438;45.014;39.006;2023-04-27T01:39:58;100493.34;;;14.60;54.82
71643;BME280;59438;45.014;39.006;2023-04-27T01:42:26;100492.50;;;14.59;55.35
71643;BME280;59438;45.014;39.006;2023-04-27T01:44:52;100493.34;;;14.60;55.24
71643;BME280;59438;45.014;39.006;2023-04-27T01:47:19;100487.22;;;14.59;55.19
71643;BME280;59438;45.014;39.006;2023-04-27T01:49:45;100489.69;;;14.62;54.95
71643;BME280;59438;45.014;39.006;2023-04-27T01:52:11;100490.47;;;14.64;55.50
71643;BME280;59438;45.014;39.006;2023-04-27T01:54:38;100487.22;;;14.59;55.18
71643;BME280;59438;45.014;39.006;2023-04-27T01:57:04;100500.16;;;14.64;55.09
71643;BME280;59438;45.014;39.006;2023-04-27T01:59:32;100494.13;;;14.62;55.45
71643;BME280;59438;45.014;39.006;2023-04-27T02:01:58;100501.28;;;14.60;55.12
71643;BME280;59438;45.014;39.006;2023-04-27T02:04:25;100502.31;;;14.57;55.41
71643;BME280;59438;45.014;39.006;2023-04-27T02:06:51;100502.47;;;14.54;55.39
71643;BME280;59438;45.014;39.006;2023-04-27T02:09:17;100502.63;;;14.51;55.39
71643;BME280;59438;45.014;39.006;2023-04-27T02:11:44;100511.75;;;14.45;55.80
71643;BME280;59438;45.014;39.006;2023-04-27T02:14:10;100510.13;;;14.43;55.95
71643;BME280;59438;45.014;39.006;2023-04-27T02:16:38;100509.56;;;14.38;55.83
71643;BME280;59438;45.014;39.006;2023-04-27T02:19:04;100511.50;;;14.34;55.88
71643;BME280;59438;45.014;39.006;2023-04-27T02:21:30;100514.41;;;14.29;56.13
71643;BME280;59438;45.014;39.006;2023-04-27T02:23:57;100517.31;;;14.25;55.95
71643;BME280;59438;45.014;39.006;2023-04-27T02:26:23;100520.19;;;14.20;56.27
71643;BME280;59438;45.014;39.006;2023-04-27T02:28:50;100516.97;;;14.15;56.06
71643;BME280;59438;45.014;39.006;2023-04-27T02:31:16;100514.59;;;14.10;56.47
71643;BME280;59438;45.014;39.006;2023-04-27T02:33:44;100518.34;;;14.06;56.83
71643;BME280;59438;45.014;39.006;2023-04-27T02:36:10;100512.34;;;14.03;56.64
71643;BME280;59438;45.014;39.006;2023-04-27T02:38:36;100515.06;;;14.01;57.01
71643;BME280;59438;45.014;39.006;2023-04-27T02:41:03;100515.16;;;14.00;56.87
71643;BME280;59438;45.014;39.006;2023-04-27T02:43:29;100512.69;;;13.97;56.87
71643;BME280;59438;45.014;39.006;2023-04-27T02:45:56;100519.00;;;13.94;57.04
71643;BME280;59438;45.014;39.006;2023-04-27T02:48:22;100516.34;;;13.94;56.93
71643;BME280;59438;45.014;39.006;2023-04-27T02:50:50;100518.03;;;13.95;58.37
71643;BME280;59438;45.014;39.006;2023-04-27T02:53:16;100522.47;;;13.95;57.63
71643;BME280;59438;45.014;39.006;2023-04-27T02:55:44;100519.06;;;13.93;58.46
71643;BME280;59438;45.014;39.006;2023-04-27T02:58:11;100512.19;;;13.90;57.92
71643;BME280;59438;45.014;39.006;2023-04-27T03:00:37;100525.38;;;13.90;57.92
71643;BME280;59438;45.014;39.006;2023-04-27T03:03:03;100520.09;;;13.90;57.82
71643;BME280;59438;45.014;39.006;2023-04-27T03:05:30;100527.91;;;13.91;57.83
71643;BME280;59438;45.014;39.006;2023-04-27T03:07:58;100526.91;;;13.94;58.32
71643;BME280;59438;45.014;39.006;2023-04-27T03:10:24;100533.88;;;13.95;58.38
71643;BME280;59438;45.014;39.006;2023-04-27T03:12:50;100539.94;;;13.97;58.08
71643;BME280;59438;45.014;39.006;2023-04-27T03:15:17;100542.59;;;13.97;58.60
71643;BME280;59438;45.014;39.006;2023-04-27T03:17:43;100547.09;;;13.95;58.82
71643;BME280;59438;45.014;39.006;2023-04-27T03:20:13;100548.88;;;13.95;59.82
71643;BME280;59438;45.014;39.006;2023-04-27T03:22:39;100547.16;;;13.94;58.85
71643;BME280;59438;45.014;39.006;2023-04-27T03:25:07;100543.69;;;13.93;59.82
71643;BME280;59438;45.014;39.006;2023-04-27T03:27:34;100557.66;;;13.95;59.47
71643;BME280;59438;45.014;39.006;2023-04-27T03:30:00;100560.22;;;13.97;59.57
71643;BME280;59438;45.014;39.006;2023-04-27T03:32:26;100565.44;;;13.98;59.97
71643;BME280;59438;45.014;39.006;2023-04-27T03:34:53;100560.03;;;14.00;59.90
71643;BME280;59438;45.014;39.006;2023-04-27T03:37:19;100561.69;;;14.02;60.33
71643;BME280;59438;45.014;39.006;2023-04-27T03:39:45;100560.66;;;14.05;60.73
71643;BME280;59438;45.014;39.006;2023-04-27T03:42:13;100572.69;;;14.10;61.51
71643;BME280;59438;45.014;39.006;2023-04-27T03:44:39;100560.06;;;14.16;60.93
71643;BME280;59438;45.014;39.006;2023-04-27T03:47:05;100560.59;;;14.22;60.78
71643;BME280;59438;45.014;39.006;2023-04-27T03:49:32;100567.19;;;14.31;60.96
71643;BME280;59438;45.014;39.006;2023-04-27T03:51:58;100570.25;;;14.39;61.10
71643;BME280;59438;45.014;39.006;2023-04-27T03:54:24;100574.16;;;14.48;61.29
71643;BME280;59438;45.014;39.006;2023-04-27T03:56:51;100579.81;;;14.58;60.62
71643;BME280;59438;45.014;39.006;2023-04-27T03:59:18;100580.84;;;14.71;61.04
71643;BME280;59438;45.014;39.006;2023-04-27T04:01:45;100576.56;;;14.84;60.41
71643;BME280;59438;45.014;39.006;2023-04-27T04:04:11;100573.13;;;14.98;60.83
71643;BME280;59438;45.014;39.006;2023-04-27T04:06:37;100568.75;;;15.13;59.80
71643;BME280;59438;45.014;39.006;2023-04-27T04:09:04;100564.25;;;15.29;60.23
71643;BME280;59438;45.014;39.006;2023-04-27T04:11:30;100560.72;;;15.45;59.15
71643;BME280;59438;45.014;39.006;2023-04-27T04:13:56;100562.44;;;15.60;58.87
71643;BME280;59438;45.014;39.006;2023-04-27T04:16:24;100560.59;;;15.77;57.13
71643;BME280;59438;45.014;39.006;2023-04-27T04:18:51;100557.09;;;15.90;58.40
71643;BME280;59438;45.014;39.006;2023-04-27T04:21:17;100562.56;;;16.02;58.15
71643;BME280;59438;45.014;39.006;2023-04-27T04:23:43;100555.97;;;16.09;58.55
71643;BME280;59438;45.014;39.006;2023-04-27T04:26:10;100556.41;;;16.16;58.43
71643;BME280;59438;45.014;39.006;2023-04-27T04:28:36;100553.59;;;16.19;58.34
71643;BME280;59438;45.014;39.006;2023-04-27T04:31:02;100563.81;;;16.25;57.48
71643;BME280;59438;45.014;39.006;2023-04-27T04:33:30;100562.53;;;16.30;55.41
71643;BME280;59438;45.014;39.006;2023-04-27T04:35:56;100560.16;;;16.40;55.90
71643;BME280;59438;45.014;39.006;2023-04-27T04:38:23;100570.06;;;16.51;56.34
71643;BME280;59438;45.014;39.006;2023-04-27T04:40:49;100571.00;;;16.64;55.31
71643;BME280;59438;45.014;39.006;2023-04-27T04:43:16;100559.59;;;16.77;54.97
71643;BME280;59438;45.014;39.006;2023-04-27T04:45:42;100552.69;;;16.88;54.65
71643;BME280;59438;45.014;39.006;2023-04-27T04:48:08;100542.28;;;16.98;54.21
71643;BME280;59438;45.014;39.006;2023-04-27T04:50:38;100542.53;;;17.08;53.16
71643;BME280;59438;45.014;39.006;2023-04-27T04:53:04;100543.72;;;17.17;53.98
71643;BME280;59438;45.014;39.006;2023-04-27T04:55:31;100551.28;;;17.23;54.77
71643;BME280;59438;45.014;39.006;2023-04-27T04:57:57;100557.13;;;17.28;54.38
71643;BME280;59438;45.014;39.006;2023-04-27T05:00:23;100557.66;;;17.33;54.18
71643;BME280;59438;45.014;39.006;2023-04-27T05:02:50;100539.41;;;17.41;53.18
71643;BME280;59438;45.014;39.006;2023-04-27T05:05:16;100547.50;;;17.52;53.61
71643;BME280;59438;45.014;39.006;2023-04-27T05:07:44;100546.66;;;17.65;52.58
71643;BME280;59438;45.014;39.006;2023-04-27T05:10:10;100544.00;;;17.78;52.39
71643;BME280;59438;45.014;39.006;2023-04-27T05:12:37;100543.69;;;17.95;51.84
71643;BME280;59438;45.014;39.006;2023-04-27T05:15:04;100550.25;;;18.15;51.64
71643;BME280;59438;45.014;39.006;2023-04-27T05:17:30;100547.50;;;18.41;51.47
71643;BME280;59438;45.014;39.006;2023-04-27T05:19:57;100557.63;;;18.72;51.05
71643;BME280;59438;45.014;39.006;2023-04-27T05:22:23;100551.88;;;19.03;50.45
71643;BME280;59438;45.014;39.006;2023-04-27T05:24:51;100553.06;;;19.34;49.93
71643;BME280;59438;45.014;39.006;2023-04-27T05:27:17;100556.59;;;20.04;49.76
71643;BME280;59438;45.014;39.006;2023-04-27T05:29:44;100564.19;;;20.97;48.70
71643;BME280;59438;45.014;39.006;2023-04-27T05:32:10;100562.72;;;21.67;46.46
71643;BME280;59438;45.014;39.006;2023-04-27T05:34:36;100560.22;;;22.27;45.28
71643;BME280;59438;45.014;39.006;2023-04-27T05:37:03;100570.19;;;22.95;44.34
71643;BME280;59438;45.014;39.006;2023-04-27T05:39:29;100564.13;;;23.51;42.54
71643;BME280;59438;45.014;39.006;2023-04-27T05:41:57;100559.25;;;23.84;40.32
71643;BME280;59438;45.014;39.006;2023-04-27T05:44:23;100552.50;;;23.70;40.89
71643;BME280;59438;45.014;39.006;2023-04-27T05:46:50;100558.78;;;23.42;40.66
71643;BME280;59438;45.014;39.006;2023-04-27T05:49:16;100566.25;;;22.99;40.70
71643;BME280;59438;45.014;39.006;2023-04-27T05:51:42;100564.81;;;22.66;41.31
71643;BME280;59438;45.014;39.006;2023-04-27T05:54:08;100572.00;;;22.65;41.93
71643;BME280;59438;45.014;39.006;2023-04-27T05:56:35;100563.75;;;23.07;41.30
71643;BME280;59438;45.014;39.006;2023-04-27T05:59:03;100556.56;;;23.84;39.35
71643;BME280;59438;45.014;39.006;2023-04-27T06:01:29;100560.88;;;24.60;39.43
71643;BME280;59438;45.014;39.006;2023-04-27T06:03:55;100557.84;;;24.91;39.09
71643;BME280;59438;45.014;39.006;2023-04-27T06:06:22;100564.53;;;25.05;38.01
71643;BME280;59438;45.014;39.006;2023-04-27T06:08:48;100557.06;;;25.17;37.84
71643;BME280;59438;45.014;39.006;2023-04-27T06:11:14;100557.22;;;25.15;36.97
71643;BME280;59438;45.014;39.006;2023-04-27T06:13:41;100557.31;;;25.05;37.29
71643;BME280;59438;45.014;39.006;2023-04-27T06:16:09;100557.69;;;24.92;36.96
71643;BME280;59438;45.014;39.006;2023-04-27T06:18:35;100553.63;;;24.70;37.97
71643;BME280;59438;45.014;39.006;2023-04-27T06:21:01;100550.13;;;24.42;38.18
71643;BME280;59438;45.014;39.006;2023-04-27T06:23:28;100548.25;;;24.15;38.46
71643;BME280;59438;45.014;39.006;2023-04-27T06:25:54;100555.72;;;23.93;39.14
71643;BME280;59438;45.014;39.006;2023-04-27T06:28:20;100553.75;;;23.76;39.22
71643;BME280;59438;45.014;39.006;2023-04-27T06:30:47;100552.22;;;23.64;40.07
71643;BME280;59438;45.014;39.006;2023-04-27T06:33:15;100556.94;;;23.52;38.91
71643;BME280;59438;45.014;39.006;2023-04-27T06:35:41;100555.41;;;23.40;39.95
71643;BME280;59438;45.014;39.006;2023-04-27T06:38:07;100562.03;;;23.36;40.01
71643;BME280;59438;45.014;39.006;2023-04-27T06:40:34;100559.19;;;23.47;39.65
71643;BME280;59438;45.014;39.006;2023-04-27T06:43:01;100561.97;;;23.74;39.60
71643;BME280;59438;45.014;39.006;2023-04-27T06:45:27;100568.28;;;23.93;39.28
71643;BME280;59438;45.014;39.006;2023-04-27T06:47:54;100568.28;;;23.93;38.89
71643;BME280;59438;45.014;39.006;2023-04-27T06:50:22;100566.19;;;23.87;37.95
71643;BME280;59438;45.014;39.006;2023-04-27T06:52:48;100573.94;;;23.80;38.95
71643;BME280;59438;45.014;39.006;2023-04-27T06:55:15;100578.19;;;23.73;37.93
71643;BME280;59438;45.014;39.006;2023-04-27T06:57:41;100580.63;;;23.57;37.50
71643;BME280;59438;45.014;39.006;2023-04-27T07:00:09;100574.75;;;23.33;37.32
71643;BME280;59438;45.014;39.006;2023-04-27T07:02:35;100580.97;;;23.15;37.46
71643;BME280;59438;45.014;39.006;2023-04-27T07:05:01;100577.53;;;22.93;37.85
71643;BME280;59438;45.014;39.006;2023-04-27T07:07:29;100576.81;;;22.81;37.73
71643;BME280;59438;45.014;39.006;2023-04-27T07:09:55;100576.97;;;22.80;38.07
71643;BME280;59438;45.014;39.006;2023-04-27T07:12:22;100582.03;;;22.83;38.11
71643;BME280;59438;45.014;39.006;2023-04-27T07:14:48;100580.59;;;22.79;37.90
71643;BME280;59438;45.014;39.006;2023-04-27T07:17:15;100570.75;;;22.69;37.73
71643;BME280;59438;45.014;39.006;2023-04-27T07:19:41;100570.00;;;22.58;37.89
71643;BME280;59438;45.014;39.006;2023-04-27T07:22:07;100567.88;;;22.51;37.85
71643;BME280;59438;45.014;39.006;2023-04-27T07:24:35;100572.78;;;22.46;37.41
71643;BME280;59438;45.014;39.006;2023-04-27T07:27:01;100558.41;;;22.28;37.72
71643;BME280;59438;45.014;39.006;2023-04-27T07:29:28;100568.75;;;22.21;37.55
71643;BME280;59438;45.014;39.006;2023-04-27T07:31:54;100565.47;;;22.08;37.46
71643;BME280;59438;45.014;39.006;2023-04-27T07:34:21;100567.97;;;22.00;37.80
71643;BME280;59438;45.014;39.006;2023-04-27T07:36:47;100573.19;;;22.01;37.57
71643;BME280;59438;45.014;39.006;2023-04-27T07:39:13;100563.91;;;22.05;37.75
71643;BME280;59438;45.014;39.006;2023-04-27T07:41:41;100576.06;;;22.19;37.07
71643;BME280;59438;45.014;39.006;2023-04-27T07:44:07;100571.13;;;22.45;37.58
71643;BME280;59438;45.014;39.006;2023-04-27T07:46:34;100564.13;;;22.73;37.20
71643;BME280;59438;45.014;39.006;2023-04-27T07:49:00;100562.59;;;23.00;37.19
71643;BME280;59438;45.014;39.006;2023-04-27T07:51:27;100543.03;;;23.19;36.37
71643;BME280;59438;45.014;39.006;2023-04-27T07:53:53;100535.25;;;23.26;35.86
71643;BME280;59438;45.014;39.006;2023-04-27T07:56:19;100525.81;;;23.31;36.10
71643;BME280;59438;45.014;39.006;2023-04-27T07:58:47;100515.91;;;23.42;35.02
71643;BME280;59438;45.014;39.006;2023-04-27T08:01:14;100518.72;;;23.50;34.95
71643;BME280;59438;45.014;39.006;2023-04-27T08:03:40;100522.22;;;23.50;34.96
71643;BME280;59438;45.014;39.006;2023-04-27T08:06:06;100521.78;;;23.55;34.65
71643;BME280;59438;45.014;39.006;2023-04-27T08:08:33;100519.53;;;23.60;34.77
71643;BME280;59438;45.014;39.006;2023-04-27T08:10:59;100509.78;;;23.59;34.33
71643;BME280;59438;45.014;39.006;2023-04-27T08:13:26;100526.16;;;23.56;34.28
71643;BME280;59438;45.014;39.006;2023-04-27T08:15:53;100528.72;;;23.58;34.05
71643;BME280;59438;45.014;39.006;2023-04-27T08:18:20;100515.59;;;23.54;34.75
71643;BME280;59438;45.014;39.006;2023-04-27T08:20:46;100534.59;;;23.71;34.66
71643;BME280;59438;45.014;39.006;2023-04-27T08:23:13;100528.78;;;23.66;34.47
71643;BME280;59438;45.014;39.006;2023-04-27T08:25:39;100531.97;;;23.51;34.45
71643;BME280;59438;45.014;39.006;2023-04-27T08:28:05;100540.03;;;23.32;34.38
71643;BME280;59438;45.014;39.006;2023-04-27T08:30:32;100542.75;;;23.12;34.65
71643;BME280;59438;45.014;39.006;2023-04-27T08:33:00;100538.63;;;22.99;34.29
71643;BME280;59438;45.014;39.006;2023-04-27T08:35:26;100549.63;;;22.86;35.12
71643;BME280;59438;45.014;39.006;2023-04-27T08:37:52;100557.78;;;22.74;35.24
71643;BME280;59438;45.014;39.006;2023-04-27T08:40:19;100575.22;;;22.69;35.29
71643;BME280;59438;45.014;39.006;2023-04-27T08:42:53;100564.81;;;22.66;34.58
71643;BME280;59438;45.014;39.006;2023-04-27T08:45:21;100570.72;;;22.60;35.93
71643;BME280;59438;45.014;39.006;2023-04-27T08:47:48;100564.22;;;22.52;36.55
71643;BME280;59438;45.014;39.006;2023-04-27T08:50:16;100566.47;;;22.47;37.60
71643;BME280;59438;45.014;39.006;2023-04-27T08:52:43;100550.13;;;22.41;38.18
71643;BME280;59438;45.014;39.006;2023-04-27T08:55:09;100545.31;;;22.35;37.84
71643;BME280;59438;45.014;39.006;2023-04-27T08:57:36;100543.59;;;22.24;37.76
71643;BME280;59438;45.014;39.006;2023-04-27T09:00:03;100539.56;;;22.08;38.21
71643;BME280;59438;45.014;39.006;2023-04-27T09:02:29;100520.63;;;21.90;38.37
71643;BME280;59438;45.014;39.006;2023-04-27T09:04:56;100532.09;;;21.71;38.10
71643;BME280;59438;45.014;39.006;2023-04-27T09:07:24;100530.88;;;21.55;39.86
71643;BME280;59438;45.014;39.006;2023-04-27T09:10:01;100533.25;;;21.48;40.37
71643;BME280;59438;45.014;39.006;2023-04-27T09:12:27;100535.09;;;21.36;39.89
71643;BME280;59438;45.014;39.006;2023-04-27T09:14:57;100518.88;;;21.28;39.78
71643;BME280;59438;45.014;39.006;2023-04-27T09:17:24;100520.00;;;21.25;39.94
71643;BME280;59438;45.014;39.006;2023-04-27T09:19:51;100520.81;;;21.26;39.93
71643;BME280;59438;45.014;39.006;2023-04-27T09:22:17;100515.69;;;21.34;39.55
71643;BME280;59438;45.014;39.006;2023-04-27T09:24:50;100503.84;;;21.48;39.04
71643;BME280;59438;45.014;39.006;2023-04-27T09:27:19;100506.88;;;21.64;38.59
71643;BME280;59438;45.014;39.006;2023-04-27T09:29:45;100513.16;;;21.84;38.55
71643;BME280;59438;45.014;39.006;2023-04-27T09:32:15;100507.44;;;21.99;37.36
71643;BME280;59438;45.014;39.006;2023-04-27T09:34:42;100497.50;;;22.20;37.88
71643;BME280;59438;45.014;39.006;2023-04-27T09:37:09;100496.59;;;22.41;37.42
71643;BME280;59438;45.014;39.006;2023-04-27T09:39:35;100489.59;;;22.59;37.08
71643;BME280;59438;45.014;39.006;2023-04-27T09:42:03;100488.72;;;22.68;35.76
71643;BME280;59438;45.014;39.006;2023-04-27T09:44:30;100482.69;;;22.76;36.76
71643;BME280;59438;45.014;39.006;2023-04-27T09:46:58;100485.91;;;22.89;36.86
71643;BME280;59438;45.014;39.006;2023-04-27T09:49:26;100492.44;;;23.06;36.02
71643;BME280;59438;45.014;39.006;2023-04-27T09:51:54;100482.66;;;23.25;36.16
71643;BME280;59438;45.014;39.006;2023-04-27T09:54:21;100477.94;;;23.46;36.08
71643;BME280;59438;45.014;39.006;2023-04-27T09:56:58;100479.41;;;23.68;35.13
71643;BME280;59438;45.014;39.006;2023-04-27T09:59:45;100473.75;;;23.81;33.96
71643;BME280;59438;45.014;39.006;2023-04-27T10:02:15;100455.94;;;23.80;33.86
71643;BME280;59438;45.014;39.006;2023-04-27T10:04:58;100478.31;;;23.99;33.88
71643;BME280;59438;45.014;39.006;2023-04-27T10:07:32;100479.16;;;23.99;34.26
71643;BME280;59438;45.014;39.006;2023-04-27T10:10:01;100479.44;;;23.96;34.40
71643;BME280;59438;45.014;39.006;2023-04-27T10:12:32;100472.94;;;23.99;33.27
71643;BME280;59438;45.014;39.006;2023-04-27T10:15:12;100475.72;;;24.07;32.90
71643;BME280;59438;45.014;39.006;2023-04-27T10:17:46;100477.09;;;24.11;32.40
71643;BME280;59438;45.014;39.006;2023-04-27T10:20:13;100489.91;;;24.17;33.42
71643;BME280;59438;45.014;39.006;2023-04-27T10:22:41;100489.41;;;24.13;32.72
71643;BME280;59438;45.014;39.006;2023-04-27T10:25:18;100492.91;;;24.14;32.25
71643;BME280;59438;45.014;39.006;2023-04-27T10:27:48;100503.66;;;24.14;32.11
71643;BME280;59438;45.014;39.006;2023-04-27T10:30:18;100496.28;;;24.16;32.44
71643;BME280;59438;45.014;39.006;2023-04-27T10:32:52;100492.31;;;24.20;32.75
71643;BME280;59438;45.014;39.006;2023-04-27T10:35:19;100481.28;;;24.23;33.19
71643;BME280;59438;45.014;39.006;2023-04-27T10:37:46;100494.78;;;24.31;32.91
71643;BME280;59438;45.014;39.006;2023-04-27T10:40:13;100499.16;;;24.32;33.45
71643;BME280;59438;45.014;39.006;2023-04-27T10:42:40;100503.94;;;24.39;33.85
71643;BME280;59438;45.014;39.006;2023-04-27T10:45:08;100493.88;;;24.41;33.97
71643;BME280;59438;45.014;39.006;2023-04-27T10:47:39;100512.97;;;24.65;34.18
71643;BME280;59438;45.014;39.006;2023-04-27T10:50:07;100495.75;;;24.58;34.93
71643;BME280;59438;45.014;39.006;2023-04-27T10:52:34;100492.22;;;24.58;35.13
71643;BME280;59438;45.014;39.006;2023-04-27T10:55:11;100482.31;;;24.40;36.10
71643;BME280;59438;45.014;39.006;2023-04-27T10:57:47;100468.31;;;24.19;36.28
71643;BME280;59438;45.014;39.006;2023-04-27T11:00:15;100465.91;;;23.98;36.55
71643;BME280;59438;45.014;39.006;2023-04-27T11:02:43;100463.03;;;23.81;36.93
71643;BME280;59438;45.014;39.006;2023-04-27T11:05:16;100452.75;;;23.67;37.36
71643;BME280;59438;45.014;39.006;2023-04-27T11:07:42;100438.56;;;23.47;37.38
71643;BME280;59438;45.014;39.006;2023-04-27T11:10:09;100441.69;;;23.42;37.65
71643;BME280;59438;45.014;39.006;2023-04-27T11:12:39;100436.94;;;23.36;38.33
71643;BME280;59438;45.014;39.006;2023-04-27T11:15:07;100440.88;;;23.32;38.45
71643;BME280;59438;45.014;39.006;2023-04-27T11:17:33;100444.56;;;23.31;38.73
71643;BME280;59438;45.014;39.006;2023-04-27T11:20:01;100443.28;;;23.35;38.79
71643;BME280;59438;45.014;39.006;2023-04-27T11:22:28;100440.31;;;23.38;38.62
71643;BME280;59438;45.014;39.006;2023-04-27T11:24:55;100425.47;;;23.44;38.84
71643;BME280;59438;45.014;39.006;2023-04-27T11:27:21;100424.31;;;23.56;38.81
71643;BME280;59438;45.014;39.006;2023-04-27T11:29:47;100421.13;;;23.70;38.60
71643;BME280;59438;45.014;39.006;2023-04-27T11:32:20;100417.97;;;23.85;38.60
71643;BME280;59438;45.014;39.006;2023-04-27T11:34:50;100408.03;;;23.95;38.04
71643;BME280;59438;45.014;39.006;2023-04-27T11:37:22;100407.72;;;23.98;37.64
71643;BME280;59438;45.014;39.006;2023-04-27T11:39:49;100410.53;;;23.97;38.43
71643;BME280;59438;45.014;39.006;2023-04-27T11:42:19;100413.09;;;23.98;38.47
71643;BME280;59438;45.014;39.006;2023-04-27T11:44:51;100400.91;;;24.04;38.17
71643;BME280;59438;45.014;39.006;2023-04-27T11:47:18;100401.97;;;24.11;37.77
71643;BME280;59438;45.014;39.006;2023-04-27T11:49:46;100403.63;;;24.22;37.35
71643;BME280;59438;45.014;39.006;2023-04-27T11:52:13;100397.66;;;24.28;37.22
71643;BME280;59438;45.014;39.006;2023-04-27T11:54:46;100401.72;;;24.32;35.83
71643;BME280;59438;45.014;39.006;2023-04-27T11:57:12;100403.00;;;24.46;36.38
71643;BME280;59438;45.014;39.006;2023-04-27T11:59:38;100412.53;;;24.58;35.74
71643;BME280;59438;45.014;39.006;2023-04-27T12:02:06;100411.47;;;24.69;35.58
71643;BME280;59438;45.014;39.006;2023-04-27T12:04:32;100410.97;;;24.73;35.69
71643;BME280;59438;45.014;39.006;2023-04-27T12:07:00;100411.59;;;24.67;34.77
71643;BME280;59438;45.014;39.006;2023-04-27T12:09:26;100396.56;;;24.39;35.27
71643;BME280;59438;45.014;39.006;2023-04-27T12:11:54;100410.19;;;24.27;35.24
71643;BME280;59438;45.014;39.006;2023-04-27T12:14:20;100411.88;;;24.10;35.86
71643;BME280;59438;45.014;39.006;2023-04-27T12:16:47;100416.78;;;23.97;35.93
71643;BME280;59438;45.014;39.006;2023-04-27T12:19:13;100408.31;;;23.92;36.15
71643;BME280;59438;45.014;39.006;2023-04-27T12:21:40;100413.41;;;23.95;36.36
71643;BME280;59438;45.014;39.006;2023-04-27T12:24:06;100406.28;;;24.04;35.69
71643;BME280;59438;45.014;39.006;2023-04-27T12:26:33;100404.66;;;24.11;35.38
71643;BME280;59438;45.014;39.006;2023-04-27T12:29:01;100407.16;;;24.22;34.56
71643;BME280;59438;45.014;39.006;2023-04-27T12:31:27;100404.69;;;24.29;34.60
71643;BME280;59438;45.014;39.006;2023-04-27T12:33:53;100400.91;;;24.40;34.35
71643;BME280;59438;45.014;39.006;2023-04-27T12:36:20;100399.31;;;24.47;34.13
71643;BME280;59438;45.014;39.006;2023-04-27T12:38:46;100399.56;;;24.53;33.75
71643;BME280;59438;45.014;39.006;2023-04-27T12:41:13;100391.38;;;24.55;33.73